EGGP/LPL METAR and TAF weather

Enter ICAO airport designator
Station Type Date Time Source
EGGP METAR 2019/08/19 22:20 UTC NOAA

EGGP 192220Z 23006KT CAVOK 13/11 Q1016


Station Type Date Time Source
EGGP Decoded METAR 2019/08/19 22:20 UTC NOAA

Liverpool Airport , United Kingdom (EGGP) 53-20N 002-51W
Aug 19, 2019 - 06:20 PM EDT / 2019.08.19 2220 UTC
Wind: from the SW (230 degrees) at 7 MPH (6 KT):0
Visibility: greater than 7 mile(s):0
Temperature: 55 F (13 C)
Dew Point: 51 F (11 C)
Relative Humidity: 87%
Pressure (altimeter): 30.00 in. Hg (1016 hPa)
ob: EGGP 192220Z 23006KT CAVOK 13/11 Q1016
cycle: 22

Station Type Date Time Source
EGGP TAF 2019/08/19 18:09 UTC NOAA

TAF EGGP 191654Z 1918/2018 27012KT 9999 SCT030
TEMPO 1918/2009 28016G26KT 6000 SHRA

Example: see airport list